Time;durP1;ratioP1;P1;durP2;ratioP2;P2;SDS_P1;SDS_P2;PMS_P1;PMS_P2;Temp;Humidity;BMP_temperature;BMP_pressure;BME280_temperature;BME280_humidity;BME280_pressure;Samples;Min_cycle;Max_cycle;Signal;HPM_P1;HPM_P2
2022/08/31 00:05:20;;;;;;;2.10;0.90;;;;;;;10.73;100.00;102494.28;7386241;19;20483;-54
2022/08/31 00:07:50;;;;;;;2.63;0.80;;;;;;;10.78;100.00;102495.50;7394020;19;20381;-52
2022/08/31 00:10:27;;;;;;;2.13;0.93;;;;;;;10.74;100.00;102489.22;7388121;19;20419;-53
2022/08/31 00:13:02;;;;;;;4.03;0.80;;;;;;;10.75;100.00;102490.13;7387879;19;20409;-55
2022/08/31 00:15:32;;;;;;;2.30;0.93;;;;;;;10.78;100.00;102490.34;7392865;19;20431;-59
2022/08/31 00:18:01;;;;;;;5.53;0.90;;;;;;;10.75;100.00;102491.03;7389669;19;20825;-54
2022/08/31 00:20:31;;;;;;;2.37;0.90;;;;;;;10.76;100.00;102479.00;7394469;19;20933;-57
2022/08/31 00:23:04;;;;;;;3.03;1.10;;;;;;;10.72;100.00;102484.75;7385707;19;20389;-54
2022/08/31 00:25:37;;;;;;;2.80;1.30;;;;;;;10.73;100.00;102477.13;7392415;19;20440;-51
2022/08/31 00:28:08;;;;;;;1.90;1.00;;;;;;;10.78;100.00;102474.84;7386382;19;20387;-53
2022/08/31 00:30:37;;;;;;;2.00;0.90;;;;;;;10.81;100.00;102475.03;7394883;19;20387;-56
2022/08/31 00:33:07;;;;;;;5.43;1.03;;;;;;;10.77;100.00;102468.78;7388950;19;20408;-53
2022/08/31 00:35:40;;;;;;;3.37;1.10;;;;;;;10.74;100.00;102462.50;7393981;19;20392;-55
2022/08/31 00:38:11;;;;;;;1.70;0.80;;;;;;;10.66;100.00;102460.31;7385722;19;20460;-50
2022/08/31 00:40:45;;;;;;;2.33;0.80;;;;;;;10.58;100.00;102466.63;7394342;19;20417;-56
2022/08/31 00:43:30;;;;;;;4.00;0.93;;;;;;;10.60;100.00;102469.28;7386276;19;20914;-55
2022/08/31 00:45:59;;;;;;;2.13;0.90;;;;;;;10.62;100.00;102486.69;7393277;19;20387;-52
2022/08/31 00:48:29;;;;;;;3.30;1.10;;;;;;;10.63;100.00;102495.34;7383768;19;20420;-54
2022/08/31 00:50:59;;;;;;;2.40;1.10;;;;;;;10.66;100.00;102509.34;7394901;19;20385;-58
2022/08/31 00:53:29;;;;;;;2.43;1.00;;;;;;;10.71;100.00;102519.09;7383294;19;20411;-49
2022/08/31 00:56:01;;;;;;;1.73;0.90;;;;;;;10.70;100.00;102527.63;7394213;19;20392;-49
2022/08/31 00:58:31;;;;;;;1.60;0.77;;;;;;;10.64;100.00;102534.16;7385198;19;20413;-53
2022/08/31 01:01:01;;;;;;;2.67;0.90;;;;;;;10.58;100.00;102530.25;7394268;19;20384;-52
2022/08/31 01:03:30;;;;;;;2.83;1.10;;;;;;;10.57;100.00;102537.13;7384846;19;20841;-53
2022/08/31 01:06:00;;;;;;;1.90;0.77;;;;;;;10.54;100.00;102544.63;7393212;19;20765;-52
2022/08/31 01:08:30;;;;;;;1.90;0.90;;;;;;;10.52;100.00;102553.97;7385313;19;20411;-56
2022/08/31 01:11:02;;;;;;;2.00;0.80;;;;;;;10.55;100.00;102572.22;7393718;19;20385;-58
2022/08/31 01:13:32;;;;;;;3.27;1.10;;;;;;;10.51;100.00;102577.97;7382967;19;20511;-53
2022/08/31 01:16:06;;;;;;;2.83;1.00;;;;;;;10.53;100.00;102597.03;7393398;19;20906;-58
2022/08/31 01:18:36;;;;;;;2.90;1.03;;;;;;;10.55;100.00;102616.09;7376710;19;20758;-46
2022/08/31 01:21:13;;;;;;;3.20;1.30;;;;;;;10.46;100.00;102616.34;7393243;19;20389;-57
2022/08/31 01:23:46;;;;;;;2.60;1.00;;;;;;;10.42;100.00;102627.22;7377616;19;20432;-50
2022/08/31 01:26:19;;;;;;;2.63;1.27;;;;;;;10.41;100.00;102653.78;7392130;19;20392;-52
2022/08/31 01:29:05;;;;;;;2.80;1.00;;;;;;;10.43;100.00;102651.34;7385892;19;20411;-51
2022/08/31 01:31:36;;;;;;;2.43;0.90;;;;;;;10.50;100.00;102669.06;7395140;19;20410;-50
2022/08/31 01:34:06;;;;;;;2.47;0.83;;;;;;;10.40;100.00;102683.84;7383559;19;20414;-55
2022/08/31 01:36:37;;;;;;;1.50;0.70;;;;;;;10.38;100.00;102695.75;7396129;19;20399;-58
2022/08/31 01:39:11;;;;;;;1.70;0.83;;;;;;;10.24;100.00;102722.19;7385034;19;20414;-51
2022/08/31 01:41:42;;;;;;;2.27;0.73;;;;;;;10.28;100.00;102734.56;7392964;19;20379;-52
2022/08/31 01:44:13;;;;;;;2.50;0.87;;;;;;;10.36;100.00;102681.81;7383498;19;20438;-50
2022/08/31 01:46:44;;;;;;;3.47;0.90;;;;;;;10.44;100.00;102715.06;7391657;19;20392;-52
2022/08/31 01:49:14;;;;;;;1.97;0.80;;;;;;;10.45;100.00;102727.22;7378137;19;20411;-54
2022/08/31 01:51:44;;;;;;;3.40;0.90;;;;;;;10.62;100.00;102731.03;7392727;19;20492;-55
2022/08/31 01:54:17;;;;;;;2.23;1.13;;;;;;;10.80;100.00;102732.38;7381812;19;20408;-53
2022/08/31 01:56:49;;;;;;;1.80;0.80;;;;;;;10.58;100.00;102735.06;7392704;19;20392;-54
2022/08/31 01:59:20;;;;;;;2.07;1.03;;;;;;;10.34;100.00;102740.19;7384348;19;20426;-56
2022/08/31 02:01:52;;;;;;;4.27;2.13;;;;;;;10.54;100.00;102743.34;7392566;19;20747;-53
2022/08/31 02:04:24;;;;;;;17.10;10.20;;;;;;;10.94;100.00;102742.78;7384447;19;20479;-53
2022/08/31 02:06:56;;;;;;;26.83;14.67;;;;;;;11.12;100.00;102750.06;7391185;19;20383;-50
2022/08/31 02:09:29;;;;;;;31.00;17.70;;;;;;;11.34;100.00;102734.41;7381259;19;20413;-49
2022/08/31 02:11:58;;;;;;;14.70;8.50;;;;;;;11.42;100.00;102707.41;7391879;19;20935;-56
2022/08/31 02:14:28;;;;;;;7.90;4.37;;;;;;;11.40;100.00;102706.41;7382928;19;20438;-54
2022/08/31 02:16:57;;;;;;;9.83;6.23;;;;;;;11.46;100.00;102688.72;7392056;19;20390;-52
2022/08/31 02:19:27;;;;;;;4.70;3.07;;;;;;;11.68;100.00;102640.16;7382044;19;20419;-54
2022/08/31 02:21:56;;;;;;;4.90;2.93;;;;;;;11.57;100.00;102543.78;7391806;19;20385;-54
2022/08/31 02:24:28;;;;;;;3.40;1.80;;;;;;;11.47;100.00;102462.16;7381142;19;20425;-59
2022/08/31 02:26:58;;;;;;;2.80;1.33;;;;;;;11.01;100.00;102427.31;7390508;19;20805;-53
2022/08/31 02:29:27;;;;;;;4.03;1.60;;;;;;;11.41;100.00;102426.47;7384682;19;20428;-56
2022/08/31 02:31:57;;;;;;;2.50;1.33;;;;;;;11.64;100.00;102361.53;7398738;19;20391;-56
2022/08/31 02:34:28;;;;;;;2.33;1.20;;;;;;;11.67;100.00;102303.16;7387717;19;20743;-57
2022/08/31 02:36:58;;;;;;;5.60;1.67;;;;;;;11.18;100.00;102238.97;7398779;19;20392;-53
2022/08/31 02:39:30;;;;;;;5.90;2.97;;;;;;;10.88;100.00;102218.16;7384842;19;20426;-56
2022/08/31 02:41:59;;;;;;;2.80;1.70;;;;;;;10.84;100.00;102236.81;7398610;19;20392;-51
2022/08/31 02:44:29;;;;;;;4.73;2.40;;;;;;;10.37;100.00;102252.72;7381426;19;20546;-54
2022/08/31 02:46:58;;;;;;;3.17;1.67;;;;;;;10.36;100.00;102305.13;7397369;19;20743;-52
2022/08/31 02:49:28;;;;;;;5.27;2.00;;;;;;;10.32;100.00;102341.84;7389468;19;20415;-52
2022/08/31 02:51:57;;;;;;;2.27;1.43;;;;;;;10.23;100.00;102392.78;7398224;19;20390;-55
2022/08/31 02:54:29;;;;;;;5.33;2.00;;;;;;;10.29;100.00;102443.94;7381418;19;20943;-56
2022/08/31 02:56:59;;;;;;;2.50;1.40;;;;;;;10.09;100.00;102474.34;7398653;19;20463;-56
2022/08/31 02:59:29;;;;;;;2.10;1.30;;;;;;;9.93;100.00;102518.78;7383293;19;20426;-51
2022/08/31 03:01:58;;;;;;;2.83;1.40;;;;;;;10.03;100.00;102583.13;7397770;19;20384;-55
2022/08/31 03:04:28;;;;;;;1.90;1.00;;;;;;;9.77;100.00;102615.63;7382167;19;21021;-51
2022/08/31 03:06:57;;;;;;;4.47;1.50;;;;;;;9.65;100.00;102679.13;7396947;19;20384;-52
2022/08/31 03:09:30;;;;;;;4.00;1.40;;;;;;;9.75;100.00;102733.22;7388381;19;20407;-54
2022/08/31 03:12:00;;;;;;;3.17;1.40;;;;;;;9.67;100.00;102703.34;7397478;19;20395;-53
2022/08/31 03:14:29;;;;;;;8.40;4.87;;;;;;;9.55;100.00;102732.53;7380310;19;20417;-58
2022/08/31 03:16:59;;;;;;;4.20;1.50;;;;;;;9.71;100.00;102795.59;7400295;19;20391;-52
2022/08/31 03:19:28;;;;;;;8.33;4.30;;;;;;;9.56;100.00;102774.69;7388758;19;20422;-55
2022/08/31 03:21:58;;;;;;;15.37;7.27;;;;;;;9.37;100.00;102741.41;7397087;19;20387;-55
2022/08/31 03:24:30;;;;;;;13.97;6.63;;;;;;;9.39;100.00;102653.16;7387253;19;20945;-50
2022/08/31 03:26:59;;;;;;;10.53;6.27;;;;;;;9.53;100.00;102571.75;7398295;19;20396;-54
2022/08/31 03:29:29;;;;;;;16.63;7.90;;;;;;;9.52;100.00;102522.69;7387706;19;20414;-55
2022/08/31 03:31:58;;;;;;;5.37;3.07;;;;;;;9.47;100.00;102498.28;7396944;19;20392;-53
2022/08/31 03:34:28;;;;;;;6.70;3.63;;;;;;;9.36;100.00;102369.56;7389072;19;20438;-56
2022/08/31 03:36:57;;;;;;;4.63;2.27;;;;;;;9.39;100.00;102346.59;7396713;19;20388;-54
2022/08/31 03:39:30;;;;;;;3.30;1.33;;;;;;;9.37;100.00;102312.09;7387346;19;20779;-51
2022/08/31 03:41:59;;;;;;;6.90;2.60;;;;;;;9.51;100.00;102287.31;7394381;19;20387;-57
2022/08/31 03:44:29;;;;;;;3.83;1.97;;;;;;;9.51;100.00;102261.56;7387153;19;20513;-52
2022/08/31 03:46:58;;;;;;;2.57;1.47;;;;;;;9.51;100.00;102268.38;7395822;19;20394;-56
2022/08/31 03:49:29;;;;;;;4.50;2.10;;;;;;;9.51;100.00;102265.81;7388474;19;20411;-53
2022/08/31 03:51:58;;;;;;;4.17;2.20;;;;;;;9.53;100.00;102254.81;7396332;19;20392;-51
2022/08/31 03:54:31;;;;;;;3.23;1.63;;;;;;;9.51;100.00;102258.06;7385601;19;20419;-51
2022/08/31 03:57:00;;;;;;;2.63;1.20;;;;;;;9.41;100.00;102251.38;7396309;19;20383;-50
2022/08/31 03:59:30;;;;;;;3.37;1.87;;;;;;;9.34;100.00;102254.31;7387654;19;20415;-54
2022/08/31 04:01:59;;;;;;;2.97;1.63;;;;;;;9.44;100.00;102251.63;7395791;19;20391;-55
2022/08/31 04:04:29;;;;;;;7.50;4.33;;;;;;;9.41;100.00;102247.13;7385387;19;20415;-53
2022/08/31 04:06:58;;;;;;;11.80;5.70;;;;;;;9.48;100.00;102245.88;7395469;19;20394;-55
2022/08/31 04:09:31;;;;;;;10.10;3.70;;;;;;;9.50;100.00;102248.56;7388170;19;20403;-52
2022/08/31 04:12:00;;;;;;;12.70;6.60;;;;;;;9.65;100.00;102243.59;7397126;19;20743;-54
2022/08/31 04:14:30;;;;;;;16.80;8.70;;;;;;;9.67;100.00;102242.91;7386478;19;20422;-56
2022/08/31 04:17:00;;;;;;;2.63;1.63;;;;;;;9.67;100.00;102250.63;7395474;19;20408;-51
2022/08/31 04:19:29;;;;;;;4.90;1.50;;;;;;;9.66;100.00;102251.44;7387916;19;20422;-56
2022/08/31 04:22:00;;;;;;;3.40;1.63;;;;;;;9.62;100.00;102251.09;7394997;19;20387;-54
2022/08/31 04:24:32;;;;;;;4.33;1.70;;;;;;;9.57;100.00;102251.69;7386794;19;20450;-53
2022/08/31 04:27:01;;;;;;;3.17;1.70;;;;;;;9.62;100.00;102254.56;7394783;19;20388;-57
2022/08/31 04:29:31;;;;;;;3.40;2.20;;;;;;;9.58;100.00;102252.56;7386027;19;20437;-52
2022/08/31 04:32:00;;;;;;;6.97;2.50;;;;;;;9.61;100.00;102257.03;7394700;19;20394;-51
2022/08/31 04:34:30;;;;;;;2.27;1.60;;;;;;;9.64;100.00;102259.84;7384849;19;20418;-55
2022/08/31 04:36:59;;;;;;;7.47;2.00;;;;;;;9.64;100.00;102260.72;7394479;19;20383;-50
2022/08/31 04:39:32;;;;;;;6.70;2.33;;;;;;;9.66;100.00;102255.69;7387975;19;21022;-51
2022/08/31 04:42:02;;;;;;;16.20;7.20;;;;;;;9.70;100.00;102255.13;7394310;19;20411;-56
2022/08/31 04:44:32;;;;;;;17.97;6.33;;;;;;;9.73;100.00;102260.47;7383686;19;20426;-51
2022/08/31 04:47:01;;;;;;;4.60;2.60;;;;;;;9.75;100.00;102261.50;7394297;19;20398;-57
2022/08/31 04:49:31;;;;;;;7.83;4.03;;;;;;;9.89;100.00;102269.28;7383996;19;20403;-53
2022/08/31 04:52:00;;;;;;;6.03;3.07;;;;;;;9.82;100.00;102266.28;7394578;19;20379;-56
2022/08/31 04:54:34;;;;;;;7.93;3.80;;;;;;;9.86;100.00;102270.81;7382487;19;20937;-58
2022/08/31 04:57:03;;;;;;;12.90;5.80;;;;;;;9.93;100.00;102273.81;7394150;19;20384;-53
2022/08/31 04:59:33;;;;;;;7.40;2.87;;;;;;;9.94;100.00;102271.38;7387363;19;20418;-52
2022/08/31 05:02:02;;;;;;;9.87;1.70;;;;;;;9.95;100.00;102274.84;7394099;19;20392;-54
2022/08/31 05:04:32;;;;;;;3.40;1.60;;;;;;;9.97;100.00;102266.44;7383483;19;20436;-53
2022/08/31 05:07:02;;;;;;;3.57;1.63;;;;;;;9.91;100.00;102265.09;7393653;19;20414;-52
2022/08/31 05:09:34;;;;;;;2.80;1.10;;;;;;;9.79;100.00;102270.31;7384060;19;20772;-55
2022/08/31 05:12:04;;;;;;;3.50;1.23;;;;;;;9.80;100.00;102267.81;7394017;19;20383;-53
2022/08/31 05:14:34;;;;;;;3.00;1.37;;;;;;;9.83;100.00;102259.41;7382913;19;20422;-55
2022/08/31 05:17:06;;;;;;;2.67;1.50;;;;;;;9.85;100.00;102268.16;7393378;19;20916;-55
2022/08/31 05:19:43;;;;;;;4.37;1.50;;;;;;;9.93;100.00;102259.28;7385198;19;20804;-52
2022/08/31 05:22:13;;;;;;;2.03;1.50;;;;;;;10.04;100.00;102257.41;7392848;19;20379;-52
2022/08/31 05:24:46;;;;;;;2.33;1.83;;;;;;;10.19;100.00;102260.13;7381753;19;20494;-55
2022/08/31 05:27:16;;;;;;;3.60;1.77;;;;;;;10.23;100.00;102256.06;7393223;19;20392;-54
2022/08/31 05:29:46;;;;;;;3.23;1.50;;;;;;;10.30;100.00;102257.41;7384413;19;20418;-49
2022/08/31 05:32:15;;;;;;;3.00;1.70;;;;;;;10.26;100.00;102256.31;7396198;19;20388;-53
2022/08/31 05:34:47;;;;;;;6.00;1.60;;;;;;;10.27;100.00;102252.94;7382518;19;20432;-53
2022/08/31 05:37:16;;;;;;;7.60;1.40;;;;;;;10.31;100.00;102259.19;7392524;19;20391;-53
2022/08/31 05:39:48;;;;;;;3.87;1.33;;;;;;;10.43;100.00;102259.13;7385189;19;20407;-49
2022/08/31 05:42:18;;;;;;;2.33;1.40;;;;;;;10.46;100.00;102259.34;7392222;19;20387;-57
2022/08/31 05:44:48;;;;;;;2.67;1.67;;;;;;;10.51;100.00;102266.59;7381524;19;20418;-52
2022/08/31 05:47:17;;;;;;;5.27;2.40;;;;;;;10.63;100.00;102271.69;7392095;19;20395;-54
2022/08/31 05:49:47;;;;;;;2.50;1.30;;;;;;;10.64;100.00;102276.03;7385056;19;20417;-57
2022/08/31 05:52:17;;;;;;;2.27;1.30;;;;;;;10.83;100.00;102284.09;7391837;19;20386;-56
2022/08/31 05:54:49;;;;;;;2.80;1.30;;;;;;;10.87;100.00;102284.38;7383388;19;20808;-54
2022/08/31 05:57:18;;;;;;;1.80;1.17;;;;;;;11.29;100.00;102291.31;7392347;19;20459;-52
2022/08/31 05:59:54;;;;;;;3.53;1.40;;;;;;;11.63;100.00;102285.66;7385044;19;20800;-56
2022/08/31 06:02:27;;;;;;;2.30;1.20;;;;;;;11.58;100.00;102297.41;7391879;19;20739;-54
2022/08/31 06:04:58;;;;;;;3.30;1.93;;;;;;;11.57;100.00;102303.38;7384495;19;20429;-56
2022/08/31 06:07:28;;;;;;;2.03;1.10;;;;;;;11.87;100.00;102300.91;7400006;19;20411;-57
2022/08/31 06:10:00;;;;;;;5.20;2.50;;;;;;;12.00;100.00;102308.59;7394802;19;20799;-51
2022/08/31 06:12:33;;;;;;;21.40;11.40;;;;;;;12.19;100.00;102325.28;7399706;19;20381;-58
2022/08/31 06:15:04;;;;;;;66.23;32.80;;;;;;;12.38;100.00;102331.56;7389533;19;20496;-53
2022/08/31 06:17:33;;;;;;;26.07;11.53;;;;;;;12.51;100.00;102333.19;7399349;19;20467;-51
2022/08/31 06:20:04;;;;;;;18.77;10.00;;;;;;;12.64;100.00;102342.56;7391963;19;20764;-60
2022/08/31 06:22:36;;;;;;;10.30;5.27;;;;;;;12.79;100.00;102346.06;7399026;19;20384;-51
2022/08/31 06:25:09;;;;;;;133.60;11.47;;;;;;;12.87;100.00;102350.78;7386460;19;20439;-57
2022/08/31 06:27:38;;;;;;;33.37;6.10;;;;;;;12.94;100.00;102356.41;7398952;19;20385;-49
2022/08/31 06:30:09;;;;;;;14.93;2.30;;;;;;;13.06;100.00;102361.38;7389363;19;20953;-57
2022/08/31 06:32:39;;;;;;;14.23;2.27;;;;;;;13.17;100.00;102371.47;7398135;19;20425;-54
2022/08/31 06:35:10;;;;;;;6.87;1.77;;;;;;;13.30;100.00;102371.38;7381390;19;20412;-55
2022/08/31 06:37:39;;;;;;;5.87;1.70;;;;;;;13.45;100.00;102391.16;7398565;19;20379;-56
2022/08/31 06:40:13;;;;;;;2.60;1.17;;;;;;;13.54;100.00;102406.38;7388983;19;20421;-55
2022/08/31 06:42:42;;;;;;;5.13;1.10;;;;;;;13.72;100.00;102411.69;7397897;19;20412;-49
2022/08/31 06:45:13;;;;;;;4.67;1.20;;;;;;;13.78;100.00;102417.22;7388375;19;20408;-52
2022/08/31 06:47:42;;;;;;;5.80;0.93;;;;;;;13.87;100.00;102428.13;7398469;19;20391;-55
2022/08/31 06:50:14;;;;;;;4.53;0.90;;;;;;;13.96;100.00;102443.28;7385950;19;20460;-53
2022/08/31 06:52:44;;;;;;;6.83;3.90;;;;;;;14.00;100.00;102462.53;7398086;19;20709;-50
2022/08/31 06:55:16;;;;;;;21.40;12.00;;;;;;;14.07;100.00;102475.03;7386805;19;20407;-57
2022/08/31 06:57:45;;;;;;;9.80;2.50;;;;;;;14.11;100.00;102482.13;7398184;19;20929;-55
2022/08/31 07:00:15;;;;;;;12.87;7.40;;;;;;;14.21;100.00;102491.34;7388956;19;20423;-55
2022/08/31 07:02:45;;;;;;;4.60;1.00;;;;;;;14.32;100.00;102505.78;7397379;19;20386;-56
2022/08/31 07:05:23;;;;;;;14.90;4.60;;;;;;;14.60;100.00;102532.34;7392606;19;20444;-54
2022/08/31 07:07:53;;;;;;;3.00;1.30;;;;;;;14.70;100.00;102554.50;7398089;19;20924;-54
2022/08/31 07:10:25;;;;;;;4.40;2.00;;;;;;;14.69;100.00;102592.59;7393361;19;21051;-52
2022/08/31 07:12:56;;;;;;;2.00;0.70;;;;;;;14.75;100.00;102611.94;7396957;19;20390;-50
2022/08/31 07:15:25;;;;;;;3.03;0.90;;;;;;;14.79;100.00;102642.47;7394046;19;20467;-50
2022/08/31 07:17:56;;;;;;;6.40;1.03;;;;;;;14.81;100.00;102651.25;7397475;19;20918;-58
2022/08/31 07:20:26;;;;;;;3.33;1.17;;;;;;;14.87;100.00;102661.97;7394211;19;20415;-58
2022/08/31 07:22:56;;;;;;;7.83;0.90;;;;;;;14.89;100.00;102680.25;7401310;19;20415;-53
2022/08/31 07:25:28;;;;;;;5.73;1.60;;;;;;;14.96;100.00;102696.28;7393342;19;20416;-55
2022/08/31 07:27:58;;;;;;;3.97;1.37;;;;;;;15.06;100.00;102714.97;7394689;19;20390;-58
2022/08/31 07:30:27;;;;;;;2.23;1.10;;;;;;;15.19;100.00;102721.72;7393666;19;20411;-54
2022/08/31 07:33:05;;;;;;;2.73;0.90;;;;;;;15.30;100.00;102750.91;7388731;19;20414;-52
2022/08/31 07:35:35;;;;;;;2.43;0.70;;;;;;;15.35;100.00;102757.25;7395911;19;20378;-48
2022/08/31 07:43:37;;;;;;;3.17;1.00;;;;;;;15.61;100.00;102762.94;7386856;19;20949;-59
2022/08/31 07:46:08;;;;;;;1.80;0.90;;;;;;;15.73;100.00;102766.19;7396453;19;20497;-55
2022/08/31 07:48:38;;;;;;;2.53;1.00;;;;;;;15.86;100.00;102766.84;7387897;19;21381;-51
2022/08/31 07:51:08;;;;;;;3.70;0.90;;;;;;;15.88;100.00;102763.50;7396133;19;20395;-54
2022/08/31 07:53:43;;;;;;;3.60;0.73;;;;;;;15.92;100.00;102735.97;7377385;19;20430;-48
2022/08/31 07:56:18;;;;;;;3.33;1.00;;;;;;;16.02;100.00;102699.16;7396213;19;20390;-51
2022/08/31 07:58:48;;;;;;;2.97;0.90;;;;;;;16.12;100.00;102678.78;7388703;19;20414;-54
2022/08/31 08:01:19;;;;;;;3.53;0.70;;;;;;;16.20;100.00;102647.09;7395908;19;20390;-54
2022/08/31 08:03:51;;;;;;;2.67;0.77;;;;;;;16.29;100.00;102635.34;7388213;19;20406;-51
2022/08/31 08:06:24;;;;;;;5.60;0.90;;;;;;;16.31;100.00;102620.69;7398091;19;20414;-55
2022/08/31 08:09:05;;;;;;;2.07;0.70;;;;;;;16.39;100.00;102605.41;7388037;19;20424;-52
2022/08/31 08:11:57;;;;;;;2.77;0.80;;;;;;;16.53;100.00;102595.63;7395885;19;20399;-57
2022/08/31 08:14:29;;;;;;;3.50;1.23;;;;;;;16.64;100.00;102596.13;7384694;19;20425;-54
2022/08/31 08:16:59;;;;;;;2.00;0.80;;;;;;;16.72;100.00;102584.38;7396851;19;20402;-57
2022/08/31 08:19:29;;;;;;;1.80;0.70;;;;;;;16.72;100.00;102574.81;7389675;19;20428;-54
2022/08/31 08:21:58;;;;;;;2.83;0.70;;;;;;;16.81;100.00;102570.84;7395388;19;20743;-55
2022/08/31 08:24:28;;;;;;;5.70;1.30;;;;;;;16.86;100.00;102562.41;7385305;19;21019;-59
2022/08/31 08:27:00;;;;;;;3.60;1.17;;;;;;;16.97;100.00;102538.53;7394313;19;20388;-54
2022/08/31 08:29:31;;;;;;;2.67;1.30;;;;;;;17.07;100.00;102514.66;7379644;19;20441;-58
2022/08/31 08:32:02;;;;;;;2.53;0.90;;;;;;;17.17;100.00;102447.25;7394890;19;20393;-58
2022/08/31 08:34:31;;;;;;;2.00;0.80;;;;;;;17.29;100.00;102395.59;7378011;19;20461;-54
2022/08/31 08:37:01;;;;;;;2.43;0.80;;;;;;;17.32;100.00;102367.03;7394761;19;20391;-58
2022/08/31 08:39:31;;;;;;;2.83;1.43;;;;;;;17.28;100.00;102326.00;7374692;19;20422;-53
2022/08/31 08:42:04;;;;;;;2.03;0.80;;;;;;;17.37;100.00;102268.97;7394671;19;20913;-51
2022/08/31 08:44:34;;;;;;;1.80;0.70;;;;;;;17.56;100.00;102251.38;7377854;19;20454;-51
2022/08/31 08:47:06;;;;;;;2.80;1.00;;;;;;;17.63;100.00;102190.75;7394532;19;20736;-57
2022/08/31 08:49:40;;;;;;;4.20;1.03;;;;;;;17.61;100.00;102163.72;7359642;19;20413;-53
2022/08/31 08:52:14;;;;;;;3.77;0.93;;;;;;;17.45;100.00;102162.31;7393869;19;20394;-55
2022/08/31 08:54:48;;;;;;;2.70;1.00;;;;;;;17.41;100.00;102171.75;7381846;19;20418;-53
2022/08/31 08:57:22;;;;;;;2.13;0.83;;;;;;;17.53;100.00;102165.16;7394001;19;20383;-57
2022/08/31 08:59:52;;;;;;;2.90;1.30;;;;;;;17.72;100.00;102137.09;7385305;19;20770;-51
2022/08/31 09:02:39;;;;;;;4.27;1.00;;;;;;;17.87;100.00;102088.03;7393512;19;20383;-54
2022/08/31 09:05:33;;;;;;;4.23;0.80;;;;;;;17.97;100.00;102029.16;7383614;19;20426;-56
2022/08/31 09:08:30;;;;;;;3.60;1.10;;;;;;;18.07;100.00;102009.47;7384937;19;20458;-52
2022/08/31 09:11:08;;;;;;;4.70;1.03;;;;;;;18.13;100.00;101960.03;7392642;19;20388;-53
2022/08/31 09:13:51;;;;;;;3.47;1.00;;;;;;;18.29;100.00;101918.69;7377868;19;20414;-50
2022/08/31 09:16:37;;;;;;;3.80;1.20;;;;;;;18.43;100.00;101843.31;7397248;19;20392;-50
2022/08/31 09:19:10;;;;;;;2.10;0.70;;;;;;;18.56;100.00;101794.88;7385664;19;20929;-57
2022/08/31 09:21:43;;;;;;;9.97;5.53;;;;;;;18.59;100.00;101766.22;7393568;19;20389;-50
2022/08/31 09:24:18;;;;;;;9.77;5.40;;;;;;;18.71;100.00;101740.38;7377399;19;20439;-57
2022/08/31 09:26:55;;;;;;;14.03;7.47;;;;;;;18.84;100.00;101707.56;7393211;19;20409;-53
2022/08/31 09:29:30;;;;;;;8.97;4.40;;;;;;;18.97;100.00;101671.25;7384451;19;20425;-55
2022/08/31 09:32:05;;;;;;;12.50;6.63;;;;;;;19.03;100.00;101642.63;7393527;19;20390;-54
2022/08/31 09:34:38;;;;;;;2.83;0.93;;;;;;;19.05;100.00;101634.81;7376309;19;20419;-53
2022/08/31 09:37:16;;;;;;;3.30;0.90;;;;;;;19.00;100.00;101737.56;7392779;19;20391;-56
2022/08/31 09:39:49;;;;;;;4.10;1.10;;;;;;;19.23;100.00;101875.81;7379640;19;20417;-51
2022/08/31 09:42:30;;;;;;;2.67;0.90;;;;;;;19.41;100.00;101987.00;7400256;19;20383;-57
2022/08/31 09:45:11;;;;;;;5.80;2.90;;;;;;;19.53;100.00;102030.94;7390405;19;20407;-59
2022/08/31 09:47:57;;;;;;;3.50;1.07;;;;;;;19.60;100.00;102052.88;7400473;19;20391;-52
2022/08/31 09:50:29;;;;;;;3.00;0.77;;;;;;;19.50;100.00;102106.72;7391630;19;20430;-54
2022/08/31 09:56:15;;;;;;;6.93;3.53;;;;;;;19.63;100.00;102110.56;7400321;19;20383;-54
2022/08/31 09:58:47;;;;;;;5.97;1.93;;;;;;;19.68;100.00;102111.53;7392495;19;20415;-57
2022/08/31 10:01:23;;;;;;;10.93;3.97;;;;;;;19.87;100.00;102094.56;7399776;19;20393;-57
2022/08/31 10:04:11;;;;;;;9.50;1.60;;;;;;;19.99;100.00;102099.25;7385954;19;20765;-58
2022/08/31 10:06:47;;;;;;;5.60;2.00;;;;;;;19.76;100.00;102107.41;7399870;19;20451;-57
2022/08/31 10:09:24;;;;;;;21.63;10.87;;;;;;;19.84;100.00;102090.16;7382056;19;20419;-59
2022/08/31 10:11:56;;;;;;;8.40;4.97;;;;;;;20.05;100.00;102094.16;7397750;19;20395;-60
2022/08/31 10:14:32;;;;;;;9.63;3.70;;;;;;;20.12;100.00;102104.78;7382001;19;20421;-54
2022/08/31 10:17:09;;;;;;;7.20;2.90;;;;;;;19.75;100.00;102112.59;7399129;19;20387;-55
2022/08/31 10:19:50;;;;;;;5.53;2.80;;;;;;;19.88;100.00;102111.19;7385074;19;21012;-54
2022/08/31 10:22:27;;;;;;;2.93;0.90;;;;;;;20.00;100.00;102115.84;7398890;19;20906;-53
2022/08/31 10:25:11;;;;;;;3.33;0.90;;;;;;;20.23;99.60;102116.41;7380907;19;20439;-52
2022/08/31 10:27:45;;;;;;;2.80;1.07;;;;;;;20.35;96.33;102121.03;7398690;19;20376;-48
2022/08/31 10:30:23;;;;;;;4.00;0.90;;;;;;;20.30;91.09;102117.44;7391534;19;20419;-51
2022/08/31 10:33:01;;;;;;;2.10;0.70;;;;;;;20.13;93.87;102119.63;7398200;19;20388;-54
2022/08/31 10:35:39;;;;;;;3.50;1.20;;;;;;;20.17;96.35;102113.63;7393745;19;20410;-55
2022/08/31 10:38:17;;;;;;;3.27;0.73;;;;;;;20.14;92.37;102124.06;7390993;19;20394;-53
2022/08/31 10:40:52;;;;;;;5.93;1.03;;;;;;;20.29;91.89;102121.78;7398513;19;20400;-51
2022/08/31 10:43:23;;;;;;;3.00;0.90;;;;;;;20.36;85.82;102122.81;7387791;19;20415;-55
2022/08/31 10:45:55;;;;;;;4.30;0.90;;;;;;;20.68;86.67;102117.41;7396064;19;20395;-48
2022/08/31 10:48:28;;;;;;;3.77;1.50;;;;;;;20.82;88.03;102115.03;7386955;19;20450;-52
2022/08/31 10:51:08;;;;;;;3.10;1.10;;;;;;;20.95;87.59;102112.69;7394211;19;20387;-56
2022/08/31 10:53:58;;;;;;;8.67;3.53;;;;;;;20.96;86.22;102115.34;7386230;19;20410;-55
2022/08/31 10:56:38;;;;;;;4.03;1.70;;;;;;;21.08;84.33;102100.72;7395811;19;20372;-58
2022/08/31 10:59:15;;;;;;;3.70;1.50;;;;;;;21.03;83.04;102104.13;7381547;19;20955;-53
2022/08/31 11:01:53;;;;;;;2.50;0.90;;;;;;;21.20;85.57;102110.56;7395608;19;20398;-58
2022/08/31 11:04:50;;;;;;;5.20;2.30;;;;;;;21.40;85.78;102103.97;7385078;19;20492;-60
2022/08/31 11:07:31;;;;;;;5.00;1.20;;;;;;;21.45;86.12;102097.03;7395455;19;20384;-52
2022/08/31 11:10:08;;;;;;;6.33;3.23;;;;;;;21.61;86.40;102101.66;7382942;19;20415;-53
2022/08/31 11:12:42;;;;;;;7.77;4.27;;;;;;;21.46;84.78;102095.28;7394254;19;20399;-58
2022/08/31 11:15:27;;;;;;;11.47;6.30;;;;;;;21.60;86.01;102095.53;7388954;19;20893;-57
2022/08/31 11:18:15;;;;;;;2.80;0.80;;;;;;;21.66;82.85;102100.91;7395385;19;20937;-53
2022/08/31 11:21:03;;;;;;;3.17;0.80;;;;;;;21.70;82.97;102102.72;7394472;19;20415;-54
2022/08/31 11:23:52;;;;;;;4.47;0.90;;;;;;;21.59;84.43;102096.41;7386447;19;20423;-54
2022/08/31 11:26:39;;;;;;;2.50;0.90;;;;;;;21.49;83.02;102098.00;7394723;19;20803;-55
2022/08/31 11:29:17;;;;;;;3.37;1.20;;;;;;;21.50;83.25;102088.34;7386606;19;20429;-56
2022/08/31 11:31:47;;;;;;;2.53;0.73;;;;;;;21.69;82.34;102089.56;7393513;19;20387;-53
2022/08/31 11:34:24;;;;;;;3.90;1.20;;;;;;;21.57;76.51;102091.13;7377542;19;20419;-56
2022/08/31 11:36:59;;;;;;;5.43;1.00;;;;;;;21.35;79.44;102084.59;7394376;19;20388;-57
2022/08/31 11:39:50;;;;;;;3.83;1.17;;;;;;;21.40;79.52;102087.31;7385954;19;20501;-54
2022/08/31 11:42:52;;;;;;;3.40;1.33;;;;;;;21.44;77.70;102079.50;7255315;19;2723341;-54
2022/08/31 11:45:31;;;;;;;2.60;0.70;;;;;;;21.62;78.02;102080.69;7380093;19;20410;-57
2022/08/31 11:48:01;;;;;;;3.47;1.00;;;;;;;21.62;77.34;102078.06;7385095;19;20966;-53
2022/08/31 11:51:00;;;;;;;4.13;1.73;;;;;;;21.83;77.55;102066.16;7395850;19;20383;-56
2022/08/31 11:53:39;;;;;;;2.97;1.17;;;;;;;21.67;73.61;102065.00;7381899;19;20430;-54
2022/08/31 11:56:13;;;;;;;2.23;0.73;;;;;;;21.66;76.99;102064.13;7396142;19;20394;-56
2022/08/31 11:58:46;;;;;;;5.57;1.33;;;;;;;22.02;76.96;102061.19;7382596;19;20518;-58